sensor_id;sensor_type;location;lat;lon;timestamp;temperature;humidity
5394;DHT22;2720;52.396;10.064;2022-10-16T00:01:07;13.00;99.90
5394;DHT22;2720;52.396;10.064;2022-10-16T00:03:35;12.90;99.90
5394;DHT22;2720;52.396;10.064;2022-10-16T00:06:02;12.80;99.90
5394;DHT22;2720;52.396;10.064;2022-10-16T00:08:29;12.70;99.90
5394;DHT22;2720;52.396;10.064;2022-10-16T00:11:01;12.70;99.90
5394;DHT22;2720;52.396;10.064;2022-10-16T00:13:28;12.60;99.90
5394;DHT22;2720;52.396;10.064;2022-10-16T00:15:57;12.60;99.90
5394;DHT22;2720;52.396;10.064;2022-10-16T00:18:25;12.60;99.90
5394;DHT22;2720;52.396;10.064;2022-10-16T00:20:53;12.60;99.90
5394;DHT22;2720;52.396;10.064;2022-10-16T00:23:21;12.50;99.90
5394;DHT22;2720;52.396;10.064;2022-10-16T00:25:55;12.50;99.90
5394;DHT22;2720;52.396;10.064;2022-10-16T00:28:22;12.40;99.90
5394;DHT22;2720;52.396;10.064;2022-10-16T00:30:49;12.40;99.90
5394;DHT22;2720;52.396;10.064;2022-10-16T00:33:17;12.40;99.90
5394;DHT22;2720;52.396;10.064;2022-10-16T00:35:45;12.40;99.90
5394;DHT22;2720;52.396;10.064;2022-10-16T00:38:12;12.40;99.90
5394;DHT22;2720;52.396;10.064;2022-10-16T00:40:39;12.40;99.90
5394;DHT22;2720;52.396;10.064;2022-10-16T00:43:12;12.40;99.90
5394;DHT22;2720;52.396;10.064;2022-10-16T00:45:40;12.30;99.90
5394;DHT22;2720;52.396;10.064;2022-10-16T00:48:11;12.20;99.90
5394;DHT22;2720;52.396;10.064;2022-10-16T00:50:41;12.10;99.90
5394;DHT22;2720;52.396;10.064;2022-10-16T00:53:10;12.20;99.90
5394;DHT22;2720;52.396;10.064;2022-10-16T00:55:38;12.20;99.90
5394;DHT22;2720;52.396;10.064;2022-10-16T00:58:05;12.10;99.90
5394;DHT22;2720;52.396;10.064;2022-10-16T01:00:32;12.20;99.90
5394;DHT22;2720;52.396;10.064;2022-10-16T01:03:01;12.10;99.90
5394;DHT22;2720;52.396;10.064;2022-10-16T01:05:33;12.10;99.90
5394;DHT22;2720;52.396;10.064;2022-10-16T01:08:09;12.20;99.90
5394;DHT22;2720;52.396;10.064;2022-10-16T01:10:41;12.20;99.90
5394;DHT22;2720;52.396;10.064;2022-10-16T01:13:16;12.30;99.90
5394;DHT22;2720;52.396;10.064;2022-10-16T01:15:48;12.20;99.90
5394;DHT22;2720;52.396;10.064;2022-10-16T01:18:20;12.20;99.90
5394;DHT22;2720;52.396;10.064;2022-10-16T01:20:51;12.20;99.90
5394;DHT22;2720;52.396;10.064;2022-10-16T01:23:28;12.10;99.90
5394;DHT22;2720;52.396;10.064;2022-10-16T01:26:31;12.40;99.90
5394;DHT22;2720;52.396;10.064;2022-10-16T01:29:07;11.90;99.90
5394;DHT22;2720;52.396;10.064;2022-10-16T01:31:39;12.00;99.90
5394;DHT22;2720;52.396;10.064;2022-10-16T01:34:13;11.80;99.90
5394;DHT22;2720;52.396;10.064;2022-10-16T01:36:45;11.80;99.90
5394;DHT22;2720;52.396;10.064;2022-10-16T01:39:15;11.80;99.90
5394;DHT22;2720;52.396;10.064;2022-10-16T01:41:49;11.80;99.90
5394;DHT22;2720;52.396;10.064;2022-10-16T01:44:22;11.70;99.90
5394;DHT22;2720;52.396;10.064;2022-10-16T01:46:52;11.70;99.90
5394;DHT22;2720;52.396;10.064;2022-10-16T01:49:22;11.70;99.90
5394;DHT22;2720;52.396;10.064;2022-10-16T01:51:53;11.70;99.90
5394;DHT22;2720;52.396;10.064;2022-10-16T01:54:23;11.60;99.90
5394;DHT22;2720;52.396;10.064;2022-10-16T01:56:53;11.70;99.90
5394;DHT22;2720;52.396;10.064;2022-10-16T01:59:25;11.70;99.90
5394;DHT22;2720;52.396;10.064;2022-10-16T02:01:56;11.70;99.90
5394;DHT22;2720;52.396;10.064;2022-10-16T02:04:28;11.80;99.90
5394;DHT22;2720;52.396;10.064;2022-10-16T02:06:56;11.70;99.90
5394;DHT22;2720;52.396;10.064;2022-10-16T02:09:23;11.60;99.90
5394;DHT22;2720;52.396;10.064;2022-10-16T02:11:51;11.60;99.90
5394;DHT22;2720;52.396;10.064;2022-10-16T02:14:20;11.40;99.90
5394;DHT22;2720;52.396;10.064;2022-10-16T02:16:51;11.40;99.90
5394;DHT22;2720;52.396;10.064;2022-10-16T02:19:19;11.30;99.90
5394;DHT22;2720;52.396;10.064;2022-10-16T02:21:49;11.30;99.90
5394;DHT22;2720;52.396;10.064;2022-10-16T02:24:25;11.30;99.90
5394;DHT22;2720;52.396;10.064;2022-10-16T02:27:03;11.30;99.90
5394;DHT22;2720;52.396;10.064;2022-10-16T02:29:38;11.40;99.90
5394;DHT22;2720;52.396;10.064;2022-10-16T02:32:08;11.50;99.90
5394;DHT22;2720;52.396;10.064;2022-10-16T02:34:37;11.50;99.90
5394;DHT22;2720;52.396;10.064;2022-10-16T02:37:06;11.60;99.90
5394;DHT22;2720;52.396;10.064;2022-10-16T02:39:33;11.60;99.90
5394;DHT22;2720;52.396;10.064;2022-10-16T02:42:01;11.60;99.90
5394;DHT22;2720;52.396;10.064;2022-10-16T02:44:28;11.70;99.90
5394;DHT22;2720;52.396;10.064;2022-10-16T02:46:55;11.70;99.90
5394;DHT22;2720;52.396;10.064;2022-10-16T02:49:23;11.70;99.90
5394;DHT22;2720;52.396;10.064;2022-10-16T02:51:50;11.80;99.90
5394;DHT22;2720;52.396;10.064;2022-10-16T02:54:17;11.80;99.90
5394;DHT22;2720;52.396;10.064;2022-10-16T02:56:44;11.70;99.90
5394;DHT22;2720;52.396;10.064;2022-10-16T02:59:11;11.80;99.90
5394;DHT22;2720;52.396;10.064;2022-10-16T03:01:38;11.70;99.90
5394;DHT22;2720;52.396;10.064;2022-10-16T03:04:05;11.70;99.90
5394;DHT22;2720;52.396;10.064;2022-10-16T03:06:34;11.70;99.90
5394;DHT22;2720;52.396;10.064;2022-10-16T03:09:01;11.70;99.90
5394;DHT22;2720;52.396;10.064;2022-10-16T03:11:28;11.60;99.90
5394;DHT22;2720;52.396;10.064;2022-10-16T03:13:55;11.60;99.90
5394;DHT22;2720;52.396;10.064;2022-10-16T03:16:22;11.60;99.90
5394;DHT22;2720;52.396;10.064;2022-10-16T03:18:49;11.60;99.90
5394;DHT22;2720;52.396;10.064;2022-10-16T03:21:16;11.50;99.90
5394;DHT22;2720;52.396;10.064;2022-10-16T03:23:44;11.60;99.90
5394;DHT22;2720;52.396;10.064;2022-10-16T03:26:12;11.50;99.90
5394;DHT22;2720;52.396;10.064;2022-10-16T03:28:39;11.50;99.90
5394;DHT22;2720;52.396;10.064;2022-10-16T03:31:06;11.50;99.90
5394;DHT22;2720;52.396;10.064;2022-10-16T03:33:33;11.40;99.90
5394;DHT22;2720;52.396;10.064;2022-10-16T03:36:00;11.40;99.90
5394;DHT22;2720;52.396;10.064;2022-10-16T03:38:27;11.40;99.90
5394;DHT22;2720;52.396;10.064;2022-10-16T03:40:56;11.40;99.90
5394;DHT22;2720;52.396;10.064;2022-10-16T03:43:22;11.30;99.90
5394;DHT22;2720;52.396;10.064;2022-10-16T03:45:50;11.30;99.90
5394;DHT22;2720;52.396;10.064;2022-10-16T03:48:17;11.40;99.90
5394;DHT22;2720;52.396;10.064;2022-10-16T03:50:44;11.30;99.90
5394;DHT22;2720;52.396;10.064;2022-10-16T03:53:11;11.40;99.90
5394;DHT22;2720;52.396;10.064;2022-10-16T03:55:40;11.30;99.90
5394;DHT22;2720;52.396;10.064;2022-10-16T03:58:09;11.40;99.90
5394;DHT22;2720;52.396;10.064;2022-10-16T04:00:36;11.40;99.90
5394;DHT22;2720;52.396;10.064;2022-10-16T04:03:06;11.40;99.90
5394;DHT22;2720;52.396;10.064;2022-10-16T04:05:33;11.30;99.90
5394;DHT22;2720;52.396;10.064;2022-10-16T04:08:00;11.40;99.90
5394;DHT22;2720;52.396;10.064;2022-10-16T04:10:27;11.40;99.90
5394;DHT22;2720;52.396;10.064;2022-10-16T04:12:54;11.40;99.90
5394;DHT22;2720;52.396;10.064;2022-10-16T04:15:23;11.40;99.90
5394;DHT22;2720;52.396;10.064;2022-10-16T04:17:51;11.40;99.90
5394;DHT22;2720;52.396;10.064;2022-10-16T04:20:18;11.40;99.90
5394;DHT22;2720;52.396;10.064;2022-10-16T04:22:45;11.40;99.90
5394;DHT22;2720;52.396;10.064;2022-10-16T04:25:12;11.40;99.90
5394;DHT22;2720;52.396;10.064;2022-10-16T04:27:39;11.30;99.90
5394;DHT22;2720;52.396;10.064;2022-10-16T04:30:07;11.30;99.90
5394;DHT22;2720;52.396;10.064;2022-10-16T04:32:36;11.30;99.90
5394;DHT22;2720;52.396;10.064;2022-10-16T04:35:03;11.30;99.90
5394;DHT22;2720;52.396;10.064;2022-10-16T04:37:30;11.40;99.90
5394;DHT22;2720;52.396;10.064;2022-10-16T04:39:57;11.40;99.90
5394;DHT22;2720;52.396;10.064;2022-10-16T04:42:24;11.30;99.90
5394;DHT22;2720;52.396;10.064;2022-10-16T04:44:51;11.30;99.90
5394;DHT22;2720;52.396;10.064;2022-10-16T04:47:18;11.30;99.90
5394;DHT22;2720;52.396;10.064;2022-10-16T04:49:46;11.30;99.90
5394;DHT22;2720;52.396;10.064;2022-10-16T04:52:13;11.20;99.90
5394;DHT22;2720;52.396;10.064;2022-10-16T04:54:40;11.30;99.90
5394;DHT22;2720;52.396;10.064;2022-10-16T04:57:07;11.30;99.90
5394;DHT22;2720;52.396;10.064;2022-10-16T04:59:34;11.20;99.90
5394;DHT22;2720;52.396;10.064;2022-10-16T05:02:01;11.30;99.90
5394;DHT22;2720;52.396;10.064;2022-10-16T05:04:28;11.20;99.90
5394;DHT22;2720;52.396;10.064;2022-10-16T05:06:56;11.30;99.90
5394;DHT22;2720;52.396;10.064;2022-10-16T05:09:23;11.30;99.90
5394;DHT22;2720;52.396;10.064;2022-10-16T05:11:50;11.30;99.90
5394;DHT22;2720;52.396;10.064;2022-10-16T05:14:17;11.30;99.90
5394;DHT22;2720;52.396;10.064;2022-10-16T05:16:44;11.20;99.90
5394;DHT22;2720;52.396;10.064;2022-10-16T05:19:13;11.20;99.90
5394;DHT22;2720;52.396;10.064;2022-10-16T05:21:40;11.20;99.90
5394;DHT22;2720;52.396;10.064;2022-10-16T05:24:08;11.20;99.90
5394;DHT22;2720;52.396;10.064;2022-10-16T05:26:35;11.20;99.90
5394;DHT22;2720;52.396;10.064;2022-10-16T05:29:03;11.30;99.90
5394;DHT22;2720;52.396;10.064;2022-10-16T05:31:30;11.30;99.90
5394;DHT22;2720;52.396;10.064;2022-10-16T05:33:58;11.30;99.90
5394;DHT22;2720;52.396;10.064;2022-10-16T05:36:25;11.30;99.90
5394;DHT22;2720;52.396;10.064;2022-10-16T05:38:52;11.30;99.90
5394;DHT22;2720;52.396;10.064;2022-10-16T05:41:21;11.40;99.90
5394;DHT22;2720;52.396;10.064;2022-10-16T05:43:50;11.40;99.90
5394;DHT22;2720;52.396;10.064;2022-10-16T05:46:17;11.40;99.90
5394;DHT22;2720;52.396;10.064;2022-10-16T05:48:44;11.40;99.90
5394;DHT22;2720;52.396;10.064;2022-10-16T05:51:12;11.40;99.90
5394;DHT22;2720;52.396;10.064;2022-10-16T05:53:40;11.40;99.90
5394;DHT22;2720;52.396;10.064;2022-10-16T05:56:09;11.40;99.90
5394;DHT22;2720;52.396;10.064;2022-10-16T05:58:39;11.40;99.90
5394;DHT22;2720;52.396;10.064;2022-10-16T06:01:09;11.40;99.90
5394;DHT22;2720;52.396;10.064;2022-10-16T06:03:36;11.40;99.90
5394;DHT22;2720;52.396;10.064;2022-10-16T06:06:11;11.40;99.90
5394;DHT22;2720;52.396;10.064;2022-10-16T06:08:38;11.40;99.90
5394;DHT22;2720;52.396;10.064;2022-10-16T06:11:08;11.40;99.90
5394;DHT22;2720;52.396;10.064;2022-10-16T06:13:35;11.40;99.90
5394;DHT22;2720;52.396;10.064;2022-10-16T06:16:04;11.40;99.90
5394;DHT22;2720;52.396;10.064;2022-10-16T06:18:32;11.40;99.90
5394;DHT22;2720;52.396;10.064;2022-10-16T06:20:59;11.40;99.90
5394;DHT22;2720;52.396;10.064;2022-10-16T06:23:28;11.50;99.90
5394;DHT22;2720;52.396;10.064;2022-10-16T06:26:04;11.50;99.90
5394;DHT22;2720;52.396;10.064;2022-10-16T06:28:31;11.60;99.90
5394;DHT22;2720;52.396;10.064;2022-10-16T06:30:59;11.60;99.90
5394;DHT22;2720;52.396;10.064;2022-10-16T06:33:27;11.70;99.90
5394;DHT22;2720;52.396;10.064;2022-10-16T06:36:00;11.70;99.90
5394;DHT22;2720;52.396;10.064;2022-10-16T06:38:27;11.70;99.90
5394;DHT22;2720;52.396;10.064;2022-10-16T06:40:54;11.80;99.90
5394;DHT22;2720;52.396;10.064;2022-10-16T06:43:21;11.80;99.90
5394;DHT22;2720;52.396;10.064;2022-10-16T06:45:51;11.90;99.90
5394;DHT22;2720;52.396;10.064;2022-10-16T06:48:18;11.90;99.90
5394;DHT22;2720;52.396;10.064;2022-10-16T06:50:56;11.90;99.90
5394;DHT22;2720;52.396;10.064;2022-10-16T06:53:24;12.00;99.90
5394;DHT22;2720;52.396;10.064;2022-10-16T06:55:51;12.00;99.90
5394;DHT22;2720;52.396;10.064;2022-10-16T06:58:18;12.10;99.90
5394;DHT22;2720;52.396;10.064;2022-10-16T07:00:45;12.10;99.90
5394;DHT22;2720;52.396;10.064;2022-10-16T07:03:12;12.20;99.90
5394;DHT22;2720;52.396;10.064;2022-10-16T07:05:40;12.30;99.90
5394;DHT22;2720;52.396;10.064;2022-10-16T07:08:08;12.40;99.90
5394;DHT22;2720;52.396;10.064;2022-10-16T07:10:35;12.50;99.90
5394;DHT22;2720;52.396;10.064;2022-10-16T07:13:02;12.60;99.90
5394;DHT22;2720;52.396;10.064;2022-10-16T07:15:29;12.80;99.90
5394;DHT22;2720;52.396;10.064;2022-10-16T07:17:56;12.90;99.90
5394;DHT22;2720;52.396;10.064;2022-10-16T07:20:23;13.10;99.90
5394;DHT22;2720;52.396;10.064;2022-10-16T07:22:50;13.20;99.90
5394;DHT22;2720;52.396;10.064;2022-10-16T07:25:19;13.40;99.90
5394;DHT22;2720;52.396;10.064;2022-10-16T07:27:46;13.50;99.90
5394;DHT22;2720;52.396;10.064;2022-10-16T07:30:13;13.50;99.90
5394;DHT22;2720;52.396;10.064;2022-10-16T07:32:40;13.60;99.90
5394;DHT22;2720;52.396;10.064;2022-10-16T07:35:07;13.70;99.90
5394;DHT22;2720;52.396;10.064;2022-10-16T07:37:34;13.70;99.90
5394;DHT22;2720;52.396;10.064;2022-10-16T07:40:01;13.70;99.90
5394;DHT22;2720;52.396;10.064;2022-10-16T07:42:30;13.70;99.90
5394;DHT22;2720;52.396;10.064;2022-10-16T07:44:57;13.80;99.90
5394;DHT22;2720;52.396;10.064;2022-10-16T07:47:24;13.80;99.90
5394;DHT22;2720;52.396;10.064;2022-10-16T07:49:51;13.80;99.90
5394;DHT22;2720;52.396;10.064;2022-10-16T07:52:18;13.90;99.90
5394;DHT22;2720;52.396;10.064;2022-10-16T07:54:45;14.10;99.90
5394;DHT22;2720;52.396;10.064;2022-10-16T07:57:11;14.20;99.90
5394;DHT22;2720;52.396;10.064;2022-10-16T07:59:45;14.40;99.90
5394;DHT22;2720;52.396;10.064;2022-10-16T08:02:12;14.40;99.90
5394;DHT22;2720;52.396;10.064;2022-10-16T08:04:39;14.50;99.90
5394;DHT22;2720;52.396;10.064;2022-10-16T08:07:07;14.50;99.90
5394;DHT22;2720;52.396;10.064;2022-10-16T08:09:34;14.50;99.90
5394;DHT22;2720;52.396;10.064;2022-10-16T08:12:02;14.50;99.90
5394;DHT22;2720;52.396;10.064;2022-10-16T08:14:29;14.60;99.90
5394;DHT22;2720;52.396;10.064;2022-10-16T08:16:58;14.70;99.90
5394;DHT22;2720;52.396;10.064;2022-10-16T08:19:25;14.90;99.90
5394;DHT22;2720;52.396;10.064;2022-10-16T08:21:51;15.10;99.90
5394;DHT22;2720;52.396;10.064;2022-10-16T08:24:19;15.30;99.90
5394;DHT22;2720;52.396;10.064;2022-10-16T08:26:45;15.50;99.90
5394;DHT22;2720;52.396;10.064;2022-10-16T08:29:13;15.60;99.90
5394;DHT22;2720;52.396;10.064;2022-10-16T08:31:41;15.80;99.90
5394;DHT22;2720;52.396;10.064;2022-10-16T08:34:10;15.80;99.90
5394;DHT22;2720;52.396;10.064;2022-10-16T08:36:37;15.90;99.90
5394;DHT22;2720;52.396;10.064;2022-10-16T08:39:04;15.90;99.90
5394;DHT22;2720;52.396;10.064;2022-10-16T08:42:06;15.90;99.90
5394;DHT22;2720;52.396;10.064;2022-10-16T08:44:59;15.90;99.90
5394;DHT22;2720;52.396;10.064;2022-10-16T08:47:39;15.80;99.90
5394;DHT22;2720;52.396;10.064;2022-10-16T08:50:13;15.80;99.90
5394;DHT22;2720;52.396;10.064;2022-10-16T08:52:42;15.80;99.90
5394;DHT22;2720;52.396;10.064;2022-10-16T08:55:19;15.80;99.90
5394;DHT22;2720;52.396;10.064;2022-10-16T08:57:51;15.80;99.90
5394;DHT22;2720;52.396;10.064;2022-10-16T09:00:19;15.90;99.90
5394;DHT22;2720;52.396;10.064;2022-10-16T09:02:52;15.80;99.90
5394;DHT22;2720;52.396;10.064;2022-10-16T09:05:51;15.70;99.90
5394;DHT22;2720;52.396;10.064;2022-10-16T09:08:26;15.70;99.90
5394;DHT22;2720;52.396;10.064;2022-10-16T09:10:58;15.80;99.90
5394;DHT22;2720;52.396;10.064;2022-10-16T09:13:31;15.80;99.90
5394;DHT22;2720;52.396;10.064;2022-10-16T09:16:12;16.00;99.90
5394;DHT22;2720;52.396;10.064;2022-10-16T09:18:47;16.10;99.90
5394;DHT22;2720;52.396;10.064;2022-10-16T09:21:20;16.10;99.90
5394;DHT22;2720;52.396;10.064;2022-10-16T09:23:48;16.10;99.90
5394;DHT22;2720;52.396;10.064;2022-10-16T09:26:16;16.20;99.90
5394;DHT22;2720;52.396;10.064;2022-10-16T09:28:45;16.20;99.90
5394;DHT22;2720;52.396;10.064;2022-10-16T09:31:22;16.30;99.90
5394;DHT22;2720;52.396;10.064;2022-10-16T09:33:53;16.30;99.90
5394;DHT22;2720;52.396;10.064;2022-10-16T09:36:23;16.30;99.90
5394;DHT22;2720;52.396;10.064;2022-10-16T09:39:02;16.30;99.90
5394;DHT22;2720;52.396;10.064;2022-10-16T09:41:30;16.40;99.90
5394;DHT22;2720;52.396;10.064;2022-10-16T09:43:59;16.40;99.90
5394;DHT22;2720;52.396;10.064;2022-10-16T09:46:29;16.50;99.90
5394;DHT22;2720;52.396;10.064;2022-10-16T09:48:58;16.50;99.90
5394;DHT22;2720;52.396;10.064;2022-10-16T09:51:28;16.60;99.90
5394;DHT22;2720;52.396;10.064;2022-10-16T09:53:58;16.60;99.90
5394;DHT22;2720;52.396;10.064;2022-10-16T09:56:26;16.70;99.90
5394;DHT22;2720;52.396;10.064;2022-10-16T09:58:58;16.70;99.90
5394;DHT22;2720;52.396;10.064;2022-10-16T10:01:30;16.80;99.90
5394;DHT22;2720;52.396;10.064;2022-10-16T10:03:58;16.90;99.90
5394;DHT22;2720;52.396;10.064;2022-10-16T10:06:32;17.10;99.90
5394;DHT22;2720;52.396;10.064;2022-10-16T10:09:06;17.30;99.90
5394;DHT22;2720;52.396;10.064;2022-10-16T10:11:41;17.40;99.90
5394;DHT22;2720;52.396;10.064;2022-10-16T10:14:17;17.50;99.90
5394;DHT22;2720;52.396;10.064;2022-10-16T10:16:45;17.60;99.90
5394;DHT22;2720;52.396;10.064;2022-10-16T10:19:16;17.70;99.90
5394;DHT22;2720;52.396;10.064;2022-10-16T10:21:45;17.70;99.90
5394;DHT22;2720;52.396;10.064;2022-10-16T10:24:13;17.80;99.90
5394;DHT22;2720;52.396;10.064;2022-10-16T10:26:47;17.90;99.90
5394;DHT22;2720;52.396;10.064;2022-10-16T10:29:22;17.80;99.90
5394;DHT22;2720;52.396;10.064;2022-10-16T10:31:55;17.70;99.90
5394;DHT22;2720;52.396;10.064;2022-10-16T10:34:39;17.90;99.90
5394;DHT22;2720;52.396;10.064;2022-10-16T10:37:20;18.00;99.90
5394;DHT22;2720;52.396;10.064;2022-10-16T10:39:53;18.30;99.90
5394;DHT22;2720;52.396;10.064;2022-10-16T10:42:25;18.40;99.90
5394;DHT22;2720;52.396;10.064;2022-10-16T10:45:15;18.50;99.90
5394;DHT22;2720;52.396;10.064;2022-10-16T10:47:50;18.70;99.90
5394;DHT22;2720;52.396;10.064;2022-10-16T10:50:24;18.80;99.90
5394;DHT22;2720;52.396;10.064;2022-10-16T10:52:59;18.90;99.90
5394;DHT22;2720;52.396;10.064;2022-10-16T10:55:37;18.80;99.90
5394;DHT22;2720;52.396;10.064;2022-10-16T10:58:37;18.70;99.90
5394;DHT22;2720;52.396;10.064;2022-10-16T11:01:09;18.80;99.90
5394;DHT22;2720;52.396;10.064;2022-10-16T11:03:56;18.80;99.90
5394;DHT22;2720;52.396;10.064;2022-10-16T11:06:26;18.90;99.90
5394;DHT22;2720;52.396;10.064;2022-10-16T11:09:00;19.10;99.90
5394;DHT22;2720;52.396;10.064;2022-10-16T11:11:32;19.00;99.90
5394;DHT22;2720;52.396;10.064;2022-10-16T11:14:05;18.70;99.90
5394;DHT22;2720;52.396;10.064;2022-10-16T11:16:37;18.30;99.90
5394;DHT22;2720;52.396;10.064;2022-10-16T11:19:23;18.00;99.90
5394;DHT22;2720;52.396;10.064;2022-10-16T11:21:59;17.60;99.90
5394;DHT22;2720;52.396;10.064;2022-10-16T11:24:41;17.50;99.90
5394;DHT22;2720;52.396;10.064;2022-10-16T11:27:14;17.40;99.90
5394;DHT22;2720;52.396;10.064;2022-10-16T11:29:46;17.30;99.90
5394;DHT22;2720;52.396;10.064;2022-10-16T11:32:21;17.10;99.90
5394;DHT22;2720;52.396;10.064;2022-10-16T11:34:52;17.20;99.90
5394;DHT22;2720;52.396;10.064;2022-10-16T11:37:25;17.50;99.90
5394;DHT22;2720;52.396;10.064;2022-10-16T11:40:03;18.10;99.90
5394;DHT22;2720;52.396;10.064;2022-10-16T11:42:37;18.80;99.90
5394;DHT22;2720;52.396;10.064;2022-10-16T11:45:16;19.20;99.90
5394;DHT22;2720;52.396;10.064;2022-10-16T11:47:53;19.80;99.90
5394;DHT22;2720;52.396;10.064;2022-10-16T11:50:25;20.40;99.90
5394;DHT22;2720;52.396;10.064;2022-10-16T11:53:00;20.80;99.90
5394;DHT22;2720;52.396;10.064;2022-10-16T11:55:32;21.30;99.90
5394;DHT22;2720;52.396;10.064;2022-10-16T11:58:04;21.50;99.90
5394;DHT22;2720;52.396;10.064;2022-10-16T12:00:37;21.60;99.90
5394;DHT22;2720;52.396;10.064;2022-10-16T12:03:15;21.80;99.90
5394;DHT22;2720;52.396;10.064;2022-10-16T12:05:55;21.50;99.90
5394;DHT22;2720;52.396;10.064;2022-10-16T12:08:25;20.80;99.90
5394;DHT22;2720;52.396;10.064;2022-10-16T12:10:54;20.80;99.90
5394;DHT22;2720;52.396;10.064;2022-10-16T12:13:34;21.00;99.90
5394;DHT22;2720;52.396;10.064;2022-10-16T12:18:50;21.70;99.90
5394;DHT22;2720;52.396;10.064;2022-10-16T12:21:30;21.90;99.90
5394;DHT22;2720;52.396;10.064;2022-10-16T12:24:02;22.10;99.90
5394;DHT22;2720;52.396;10.064;2022-10-16T12:26:32;22.00;99.90
5394;DHT22;2720;52.396;10.064;2022-10-16T12:29:14;22.00;99.90
5394;DHT22;2720;52.396;10.064;2022-10-16T12:31:44;22.10;99.90
5394;DHT22;2720;52.396;10.064;2022-10-16T12:34:22;22.30;99.90
5394;DHT22;2720;52.396;10.064;2022-10-16T12:36:50;22.60;99.90
5394;DHT22;2720;52.396;10.064;2022-10-16T12:39:22;23.00;99.90
5394;DHT22;2720;52.396;10.064;2022-10-16T12:42:01;23.20;99.90
5394;DHT22;2720;52.396;10.064;2022-10-16T12:44:32;23.60;99.90
5394;DHT22;2720;52.396;10.064;2022-10-16T12:47:00;23.80;99.90
5394;DHT22;2720;52.396;10.064;2022-10-16T12:49:32;23.80;99.90
5394;DHT22;2720;52.396;10.064;2022-10-16T12:51:59;23.90;99.90
5394;DHT22;2720;52.396;10.064;2022-10-16T12:54:28;23.90;99.90
5394;DHT22;2720;52.396;10.064;2022-10-16T12:57:18;23.90;99.90
5394;DHT22;2720;52.396;10.064;2022-10-16T12:59:53;23.90;99.90
5394;DHT22;2720;52.396;10.064;2022-10-16T13:02:52;23.60;99.90
5394;DHT22;2720;52.396;10.064;2022-10-16T13:05:49;23.70;99.90
5394;DHT22;2720;52.396;10.064;2022-10-16T13:08:34;23.70;99.90
5394;DHT22;2720;52.396;10.064;2022-10-16T13:11:08;23.70;99.90
5394;DHT22;2720;52.396;10.064;2022-10-16T13:13:54;23.80;99.90
5394;DHT22;2720;52.396;10.064;2022-10-16T13:16:29;23.90;99.90
5394;DHT22;2720;52.396;10.064;2022-10-16T13:19:08;24.10;99.90
5394;DHT22;2720;52.396;10.064;2022-10-16T13:21:43;24.30;99.90
5394;DHT22;2720;52.396;10.064;2022-10-16T13:24:30;24.60;99.90
5394;DHT22;2720;52.396;10.064;2022-10-16T13:27:07;24.70;99.90
5394;DHT22;2720;52.396;10.064;2022-10-16T13:29:38;24.30;99.90
5394;DHT22;2720;52.396;10.064;2022-10-16T13:32:09;24.20;99.90
5394;DHT22;2720;52.396;10.064;2022-10-16T13:34:45;24.00;99.90
5394;DHT22;2720;52.396;10.064;2022-10-16T13:37:20;24.00;99.90
5394;DHT22;2720;52.396;10.064;2022-10-16T13:39:47;24.00;99.90
5394;DHT22;2720;52.396;10.064;2022-10-16T13:42:21;23.80;99.90
5394;DHT22;2720;52.396;10.064;2022-10-16T13:44:52;23.60;99.90
5394;DHT22;2720;52.396;10.064;2022-10-16T13:47:21;22.90;99.90
5394;DHT22;2720;52.396;10.064;2022-10-16T13:49:59;22.60;99.90
5394;DHT22;2720;52.396;10.064;2022-10-16T13:52:27;22.20;99.90
5394;DHT22;2720;52.396;10.064;2022-10-16T13:54:54;21.70;99.90
5394;DHT22;2720;52.396;10.064;2022-10-16T13:57:23;21.30;99.90
5394;DHT22;2720;52.396;10.064;2022-10-16T13:59:52;21.10;99.90
5394;DHT22;2720;52.396;10.064;2022-10-16T14:02:22;20.90;99.90
5394;DHT22;2720;52.396;10.064;2022-10-16T14:04:52;20.90;99.90
5394;DHT22;2720;52.396;10.064;2022-10-16T14:07:23;20.90;99.90
5394;DHT22;2720;52.396;10.064;2022-10-16T14:09:51;21.00;99.90
5394;DHT22;2720;52.396;10.064;2022-10-16T14:12:19;20.90;99.90
5394;DHT22;2720;52.396;10.064;2022-10-16T14:14:48;20.90;99.90
5394;DHT22;2720;52.396;10.064;2022-10-16T14:17:20;20.80;99.90
5394;DHT22;2720;52.396;10.064;2022-10-16T14:19:50;20.60;99.90
5394;DHT22;2720;52.396;10.064;2022-10-16T14:22:30;20.50;99.90
5394;DHT22;2720;52.396;10.064;2022-10-16T14:24:58;20.50;99.90
5394;DHT22;2720;52.396;10.064;2022-10-16T14:27:29;20.50;99.90
5394;DHT22;2720;52.396;10.064;2022-10-16T14:30:16;20.40;99.90
5394;DHT22;2720;52.396;10.064;2022-10-16T14:32:55;20.30;99.90
5394;DHT22;2720;52.396;10.064;2022-10-16T14:35:28;20.10;99.90
5394;DHT22;2720;52.396;10.064;2022-10-16T14:37:56;20.00;99.90
5394;DHT22;2720;52.396;10.064;2022-10-16T14:40:25;19.90;99.90
5394;DHT22;2720;52.396;10.064;2022-10-16T14:42:53;19.80;99.90
5394;DHT22;2720;52.396;10.064;2022-10-16T14:45:22;19.60;99.90
5394;DHT22;2720;52.396;10.064;2022-10-16T14:47:53;19.40;99.90
5394;DHT22;2720;52.396;10.064;2022-10-16T14:50:20;19.10;99.90
5394;DHT22;2720;52.396;10.064;2022-10-16T14:52:47;18.90;99.90
5394;DHT22;2720;52.396;10.064;2022-10-16T14:55:15;18.80;99.90
5394;DHT22;2720;52.396;10.064;2022-10-16T14:57:43;18.70;99.90
5394;DHT22;2720;52.396;10.064;2022-10-16T15:00:15;18.70;99.90
5394;DHT22;2720;52.396;10.064;2022-10-16T15:02:42;18.60;99.90
5394;DHT22;2720;52.396;10.064;2022-10-16T15:05:18;18.80;99.90
5394;DHT22;2720;52.396;10.064;2022-10-16T15:07:46;18.50;99.90
5394;DHT22;2720;52.396;10.064;2022-10-16T15:10:15;18.50;99.90
5394;DHT22;2720;52.396;10.064;2022-10-16T15:12:42;18.50;99.90
5394;DHT22;2720;52.396;10.064;2022-10-16T15:15:32;18.50;99.90
5394;DHT22;2720;52.396;10.064;2022-10-16T15:17:59;18.50;99.90
5394;DHT22;2720;52.396;10.064;2022-10-16T15:20:30;18.40;99.90
5394;DHT22;2720;52.396;10.064;2022-10-16T15:22:59;18.40;99.90
5394;DHT22;2720;52.396;10.064;2022-10-16T15:25:33;18.30;99.90
5394;DHT22;2720;52.396;10.064;2022-10-16T15:28:02;18.20;99.90
5394;DHT22;2720;52.396;10.064;2022-10-16T15:30:30;18.20;99.90
5394;DHT22;2720;52.396;10.064;2022-10-16T15:32:57;18.20;99.90
5394;DHT22;2720;52.396;10.064;2022-10-16T15:35:24;18.10;99.90
5394;DHT22;2720;52.396;10.064;2022-10-16T15:37:53;18.10;99.90
5394;DHT22;2720;52.396;10.064;2022-10-16T15:40:20;18.10;99.90
5394;DHT22;2720;52.396;10.064;2022-10-16T15:42:48;18.10;99.90
5394;DHT22;2720;52.396;10.064;2022-10-16T15:45:15;18.00;99.90
5394;DHT22;2720;52.396;10.064;2022-10-16T15:47:43;17.80;99.90
5394;DHT22;2720;52.396;10.064;2022-10-16T15:50:11;17.70;99.90
5394;DHT22;2720;52.396;10.064;2022-10-16T15:52:38;17.60;99.90
5394;DHT22;2720;52.396;10.064;2022-10-16T15:55:08;17.40;99.90
5394;DHT22;2720;52.396;10.064;2022-10-16T15:57:36;17.20;99.90
5394;DHT22;2720;52.396;10.064;2022-10-16T16:00:07;17.10;99.90
5394;DHT22;2720;52.396;10.064;2022-10-16T16:02:35;16.90;99.90
5394;DHT22;2720;52.396;10.064;2022-10-16T16:05:02;16.70;99.90
5394;DHT22;2720;52.396;10.064;2022-10-16T16:07:31;16.60;99.90
5394;DHT22;2720;52.396;10.064;2022-10-16T16:09:58;16.40;99.90